Time;durP1;ratioP1;P1;durP2;ratioP2;P2;SDS_P1;SDS_P2;PMS_P1;PMS_P2;Temp;Humidity;BMP_temperature;BMP_pressure;BME280_temperature;BME280_humidity;BME280_pressure;Samples;Min_cycle;Max_cycle;Signal;HPM_P1;HPM_P2
2023/05/11 00:00:57;;;;;;;0.20;0.15;;;;;;;;;;4918239;28;20098;-83
2023/05/11 00:03:23;;;;;;;0.30;0.30;;;;;;;;;;4933954;28;20702;-83
2023/05/11 00:06:00;;;;;;;0.20;0.10;;;;;;;;;;4943049;28;20054;-82
2023/05/11 00:08:29;;;;;;;0.32;0.32;;;;;;;;;;4965090;23;20274;-82
2023/05/11 00:11:00;;;;;;;0.20;0.10;;;;;;;;;;4979633;28;20123;-82
2023/05/11 00:13:27;;;;;;;0.20;0.10;;;;;;;;;;4958135;28;20066;-83
2023/05/11 00:15:55;;;;;;;0.47;0.38;;;;;;;;;;4954224;28;20046;-84
2023/05/11 00:18:31;;;;;;;0.30;0.30;;;;;;;;;;4972694;28;20098;-84
2023/05/11 00:20:59;;;;;;;0.20;0.10;;;;;;;;;;4962424;28;20055;-82
2023/05/11 00:23:28;;;;;;;0.38;0.20;;;;;;;;;;4969701;28;20050;-82
2023/05/11 00:26:26;;;;;;;0.20;0.10;;;;;;;;;;4973018;28;20055;-83
2023/05/11 00:28:53;;;;;;;0.50;0.50;;;;;;;;;;4975458;28;20058;-83
2023/05/11 00:31:19;;;;;;;0.20;0.15;;;;;;;;;;4958757;28;20503;-82
2023/05/11 00:33:48;;;;;;;1.15;0.35;;;;;;;;;;4963030;28;20042;-83
2023/05/11 00:36:23;;;;;;;0.20;0.10;;;;;;;;;;4962366;28;20522;-82
2023/05/11 00:38:49;;;;;;;0.20;0.10;;;;;;;;;;4957424;28;20035;-81
2023/05/11 00:41:21;;;;;;;0.20;0.00;;;;;;;;;;4973879;28;20618;-83
2023/05/11 00:43:50;;;;;;;0.20;0.10;;;;;;;;;;4959565;28;20531;-82
2023/05/11 00:46:32;;;;;;;0.20;0.20;;;;;;;;;;4977725;28;20068;-82
2023/05/11 00:49:04;;;;;;;0.20;0.13;;;;;;;;;;4957846;28;20589;-82
2023/05/11 00:51:43;;;;;;;1.65;0.43;;;;;;;;;;4974034;28;20427;-82
2023/05/11 00:54:14;;;;;;;0.20;0.10;;;;;;;;;;4972684;28;20137;-84
2023/05/11 00:57:09;;;;;;;0.73;0.30;;;;;;;;;;4971205;28;20039;-85
2023/05/11 00:59:37;;;;;;;1.52;0.45;;;;;;;;;;4977163;28;20701;-83
2023/05/11 01:02:14;;;;;;;0.20;0.10;;;;;;;;;;4959143;28;20606;-81
2023/05/11 01:04:56;;;;;;;0.20;0.00;;;;;;;;;;4961127;28;20098;-83
2023/05/11 01:07:34;;;;;;;0.20;0.00;;;;;;;;;;4965307;28;20038;-83
2023/05/11 01:10:31;;;;;;;0.20;0.20;;;;;;;;;;4974731;28;20058;-82
2023/05/11 01:13:21;;;;;;;0.20;0.10;;;;;;;;;;4963682;28;20056;-82
2023/05/11 01:15:55;;;;;;;0.20;0.10;;;;;;;;;;4965489;28;20525;-83
2023/05/11 01:21:39;;;;;;;0.43;0.40;;;;;;;;;;4972623;28;20056;-81
2023/05/11 01:24:24;;;;;;;0.20;0.10;;;;;;;;;;4959767;28;20077;-82
2023/05/11 01:27:17;;;;;;;0.20;0.10;;;;;;;;;;4972265;28;20049;-84
2023/05/11 01:30:02;;;;;;;0.20;0.10;;;;;;;;;;4973756;28;20084;-83
2023/05/11 01:32:30;;;;;;;0.20;0.00;;;;;;;;;;4963059;28;20031;-83
2023/05/11 01:35:05;;;;;;;0.20;0.20;;;;;;;;;;4976388;28;20034;-82
2023/05/11 01:37:59;;;;;;;0.20;0.00;;;;;;;;;;4914022;28;20048;-82
2023/05/11 01:40:43;;;;;;;0.20;0.00;;;;;;;;;;4966638;28;20155;-82
2023/05/11 01:43:23;;;;;;;0.20;0.10;;;;;;;;;;4964818;28;20042;-84
2023/05/11 01:46:08;;;;;;;0.20;0.10;;;;;;;;;;4982609;28;20042;-83
2023/05/11 01:54:19;;;;;;;0.38;0.30;;;;;;;;;;4914438;29;20092;-83
2023/05/11 01:57:04;;;;;;;;;;;;;;;;;;;;;
2023/05/11 01:59:54;;;;;;;0.28;0.15;;;;;;;;;;4973466;28;20042;-82
2023/05/11 02:02:46;;;;;;;0.20;0.10;;;;;;;;;;4960634;28;20066;-82
2023/05/11 02:05:26;;;;;;;0.22;0.15;;;;;;;;;;4965290;28;20117;-83
2023/05/11 02:08:02;;;;;;;0.20;0.10;;;;;;;;;;4977314;28;20072;-82
2023/05/11 02:10:40;;;;;;;0.30;0.22;;;;;;;;;;4961902;28;20042;-84
2023/05/11 02:13:12;;;;;;;0.20;0.20;;;;;;;;;;4962499;28;20327;-83
2023/05/11 02:15:44;;;;;;;;;;;;;;;;;;4973731;28;20052;-84
2023/05/11 02:18:22;;;;;;;0.20;0.10;;;;;;;;;;4958767;28;19949;-83
2023/05/11 02:23:53;;;;;;;0.35;0.30;;;;;;;;;;4976380;28;20140;-84
2023/05/11 02:26:29;;;;;;;0.30;0.20;;;;;;;;;;4990310;28;20047;-83
2023/05/11 02:29:11;;;;;;;0.20;0.10;;;;;;;;;;4975540;28;20069;-82
2023/05/11 02:31:44;;;;;;;0.55;0.43;;;;;;;;;;4971395;28;20034;-82
2023/05/11 02:34:52;;;;;;;0.30;0.25;;;;;;;;;;4974554;28;20043;-82
2023/05/11 02:37:30;;;;;;;0.20;0.00;;;;;;;;;;4904895;29;20039;-83
2023/05/11 02:40:07;;;;;;;0.40;0.40;;;;;;;;;;4914313;28;20149;-83
2023/05/11 02:42:50;;;;;;;0.43;0.43;;;;;;;;;;4967107;28;20393;-84
2023/05/11 02:45:16;;;;;;;0.20;0.10;;;;;;;;;;4993435;28;20042;-82
2023/05/11 02:47:49;;;;;;;0.20;0.00;;;;;;;;;;4970171;28;20523;-82
2023/05/11 02:51:02;;;;;;;0.55;0.45;;;;;;;;;;4991074;28;20047;-84
2023/05/11 02:53:41;;;;;;;0.20;0.10;;;;;;;;;;4972344;28;20517;-84
2023/05/11 02:58:57;;;;;;;0.28;0.15;;;;;;;;;;4967505;28;20077;-83
2023/05/11 03:01:25;;;;;;;1.23;0.40;;;;;;;;;;4986716;28;20106;-82
2023/05/11 03:03:57;;;;;;;0.22;0.13;;;;;;;;;;4973706;28;20097;-82
2023/05/11 03:06:23;;;;;;;0.25;0.20;;;;;;;;;;4960122;28;20396;-83
2023/05/11 03:08:57;;;;;;;0.80;0.30;;;;;;;;;;4966216;28;20069;-86
2023/05/11 03:11:27;;;;;;;0.30;0.25;;;;;;;;;;4961397;28;20050;-82
2023/05/11 03:14:01;;;;;;;0.77;0.60;;;;;;;;;;4994111;28;20101;-82
2023/05/11 03:19:23;;;;;;;0.20;0.10;;;;;;;;;;4974731;28;20049;-82
2023/05/11 03:22:00;;;;;;;0.22;0.22;;;;;;;;;;4968235;28;20459;-84
2023/05/11 03:24:54;;;;;;;0.60;0.30;;;;;;;;;;4967944;28;20546;-83
2023/05/11 03:27:37;;;;;;;0.20;0.00;;;;;;;;;;4976340;28;20058;-84
2023/05/11 03:30:09;;;;;;;0.20;0.10;;;;;;;;;;4961586;28;20583;-83
2023/05/11 03:32:45;;;;;;;0.20;0.20;;;;;;;;;;4955601;28;20039;-82
2023/05/11 03:35:11;;;;;;;1.27;0.30;;;;;;;;;;4967453;28;20049;-82
2023/05/11 03:37:47;;;;;;;0.20;0.10;;;;;;;;;;4974120;28;20050;-83
2023/05/11 03:40:17;;;;;;;0.30;0.15;;;;;;;;;;4978938;28;20122;-84
2023/05/11 03:43:06;;;;;;;0.20;0.10;;;;;;;;;;4975626;28;20034;-82
2023/05/11 03:45:45;;;;;;;0.35;0.28;;;;;;;;;;4972701;28;20141;-82
2023/05/11 03:48:23;;;;;;;0.20;0.20;;;;;;;;;;4972482;28;20455;-83
2023/05/11 03:51:08;;;;;;;0.50;0.32;;;;;;;;;;4956733;28;20046;-82
2023/05/11 03:53:35;;;;;;;0.35;0.28;;;;;;;;;;4959579;28;20045;-83
2023/05/11 03:56:10;;;;;;;0.20;0.10;;;;;;;;;;4970673;28;20582;-83
2023/05/11 03:59:00;;;;;;;0.30;0.30;;;;;;;;;;4959728;28;20133;-83
2023/05/11 04:01:51;;;;;;;;;;;;;;;;;;;;;
2023/05/11 04:04:30;;;;;;;0.20;0.20;;;;;;;;;;4969922;28;20097;-84
2023/05/11 04:06:56;;;;;;;0.52;0.52;;;;;;;;;;4963378;28;20046;-84
2023/05/11 04:09:25;;;;;;;0.30;0.30;;;;;;;;;;4964474;28;20035;-83
2023/05/11 04:12:01;;;;;;;0.20;0.03;;;;;;;;;;4966712;28;20047;-83
2023/05/11 04:14:35;;;;;;;0.45;0.45;;;;;;;;;;4974381;28;20046;-83
2023/05/11 04:17:07;;;;;;;0.20;0.10;;;;;;;;;;4955297;28;20039;-83
2023/05/11 04:19:45;;;;;;;0.20;0.10;;;;;;;;;;4962123;28;20459;-84
2023/05/11 04:22:15;;;;;;;0.20;0.10;;;;;;;;;;4959345;28;20053;-83
2023/05/11 04:24:41;;;;;;;0.20;0.10;;;;;;;;;;4967780;28;20039;-82
2023/05/11 04:27:07;;;;;;;0.20;0.00;;;;;;;;;;4972918;28;20046;-86
2023/05/11 04:29:54;;;;;;;0.20;0.10;;;;;;;;;;4971574;28;20038;-83
2023/05/11 04:33:22;;;;;;;1.13;0.40;;;;;;;;;;4972383;28;20035;-83
2023/05/11 04:35:49;;;;;;;0.20;0.10;;;;;;;;;;4973794;28;20542;-83
2023/05/11 04:38:24;;;;;;;0.47;0.32;;;;;;;;;;4960390;28;20080;-82
2023/05/11 04:40:56;;;;;;;0.20;0.10;;;;;;;;;;4955149;28;20051;-82
2023/05/11 04:43:31;;;;;;;0.20;0.10;;;;;;;;;;4979020;28;20128;-81
2023/05/11 04:46:19;;;;;;;0.20;0.10;;;;;;;;;;4968307;28;20061;-82
2023/05/11 04:49:26;;;;;;;0.20;0.10;;;;;;;;;;4968924;28;20062;-82
2023/05/11 04:51:52;;;;;;;0.20;0.10;;;;;;;;;;4910467;28;20054;-82
2023/05/11 04:54:29;;;;;;;0.20;0.10;;;;;;;;;;4967648;28;20085;-84
2023/05/11 04:57:10;;;;;;;0.30;0.30;;;;;;;;;;4959166;28;20046;-83
2023/05/11 04:59:48;;;;;;;0.20;0.13;;;;;;;;;;4957087;28;20065;-84
2023/05/11 05:02:17;;;;;;;0.20;0.10;;;;;;;;;;4969650;28;20066;-82
2023/05/11 05:04:48;;;;;;;0.20;0.10;;;;;;;;;;4973395;28;20149;-83
2023/05/11 05:07:14;;;;;;;0.20;0.10;;;;;;;;;;4965197;28;20059;-82
2023/05/11 05:10:10;;;;;;;0.20;0.10;;;;;;;;;;4952206;28;20038;-81
2023/05/11 05:12:56;;;;;;;0.20;0.15;;;;;;;;;;4951954;28;20054;-81
2023/05/11 05:16:04;;;;;;;0.20;0.10;;;;;;;;;;4970277;28;20039;-81
2023/05/11 05:18:36;;;;;;;0.20;0.10;;;;;;;;;;4987825;28;20035;-83
2023/05/11 05:21:22;;;;;;;0.22;0.22;;;;;;;;;;4967943;28;20450;-83
2023/05/11 05:23:48;;;;;;;0.43;0.43;;;;;;;;;;4965140;28;20049;-83
2023/05/11 05:26:25;;;;;;;0.20;0.10;;;;;;;;;;4982744;28;20042;-82
2023/05/11 05:32:57;;;;;;;;;;;;;;;;;;;;;
2023/05/11 05:36:02;;;;;;;;;;;;;;;;;;;;;
2023/05/11 05:38:56;;;;;;;0.63;0.38;;;;;;;;;;4931571;28;20248;-83
2023/05/11 05:41:53;;;;;;;0.20;0.00;;;;;;;;;;4916176;29;20089;-82
2023/05/11 05:44:20;;;;;;;0.20;0.10;;;;;;;;;;4902065;29;20055;-83
2023/05/11 05:52:35;;;;;;;;;;;;;;;;;;;;;
2023/05/11 05:58:25;;;;;;;0.20;0.10;;;;;;;;;;4945489;28;20097;-82
2023/05/11 06:01:30;;;;;;;0.73;0.43;;;;;;;;;;4963743;28;20051;-83
2023/05/11 06:03:59;;;;;;;1.98;0.40;;;;;;;;;;4942124;28;20046;-83
2023/05/11 06:06:59;;;;;;;;;;;;;;;;;;;;;
2023/05/11 06:10:07;;;;;;;0.20;0.10;;;;;;;;;;4948396;23;20383;-84
2023/05/11 06:12:45;;;;;;;0.20;0.05;;;;;;;;;;4966288;28;20126;-83
2023/05/11 06:15:27;;;;;;;0.32;0.32;;;;;;;;;;4950296;28;20046;-83
2023/05/11 06:18:01;;;;;;;0.20;0.10;;;;;;;;;;4959419;28;20155;-82
2023/05/11 06:27:43;;;;;;;0.20;0.10;;;;;;;;;;4952542;28;20050;-83
2023/05/11 06:30:38;;;;;;;0.20;0.10;;;;;;;;;;4893712;29;20064;-82
2023/05/11 06:34:18;;;;;;;0.20;0.20;;;;;;;;;;4960673;28;20035;-84
2023/05/11 06:37:19;;;;;;;0.20;0.17;;;;;;;;;;4944211;28;20046;-83
2023/05/11 06:40:15;;;;;;;;;;;;;;;;;;;;;
2023/05/11 06:43:11;;;;;;;0.40;0.22;;;;;;;;;;4957800;28;20046;-82
2023/05/11 06:46:05;;;;;;;0.82;0.17;;;;;;;;;;4932840;28;20047;-83
2023/05/11 06:51:37;;;;;;;0.45;0.43;;;;;;;;;;4946309;28;20039;-83
2023/05/11 07:01:10;;;;;;;;;;;;;;;;;;;;;
2023/05/11 07:03:55;;;;;;;0.20;0.10;;;;;;;;;;4965152;28;20046;-82
2023/05/11 07:06:35;;;;;;;0.20;0.10;;;;;;;;;;4946605;28;20042;-84
2023/05/11 07:09:30;;;;;;;0.20;0.05;;;;;;;;;;4941692;28;20053;-84
2023/05/11 07:12:11;;;;;;;;;;;;;;;;;;;;;
2023/05/11 07:15:11;;;;;;;0.82;0.82;;;;;;;;;;4906418;29;20723;-83
2023/05/11 07:18:01;;;;;;;0.20;0.10;;;;;;;;;;4967990;23;20025;-84
2023/05/11 07:20:35;;;;;;;0.20;0.10;;;;;;;;;;4929528;28;20082;-83
2023/05/11 07:26:48;;;;;;;0.20;0.00;;;;;;;;;;4939672;28;20043;-84
2023/05/11 07:32:35;;;;;;;0.20;0.10;;;;;;;;;;4932223;28;20507;-83
2023/05/11 07:35:09;;;;;;;0.20;0.10;;;;;;;;;;4932694;28;20039;-82
2023/05/11 07:37:35;;;;;;;0.30;0.20;;;;;;;;;;4930740;28;20385;-82
2023/05/11 07:40:04;;;;;;;0.20;0.10;;;;;;;;;;4932386;28;20050;-83
2023/05/11 07:45:47;;;;;;;0.20;0.10;;;;;;;;;;4936865;28;20051;-86
2023/05/11 08:35:20;;;;;;;0.20;0.10;;;;;;;;;;4993760;28;20039;-86
2023/05/11 08:38:05;;;;;;;0.20;0.10;;;;;;;;;;4979457;28;20080;-88
2023/05/11 08:40:47;;;;;;;;;;;;;;;;;;;;;
2023/05/11 08:47:07;;;;;;;0.20;0.10;;;;;;;;;;4915869;28;20062;-85
2023/05/11 08:49:34;;;;;;;0.20;0.05;;;;;;;;;;4987299;28;20049;-85
2023/05/11 08:52:03;;;;;;;0.20;0.10;;;;;;;;;;4991273;28;20050;-85
2023/05/11 08:54:29;;;;;;;0.20;0.00;;;;;;;;;;5005231;28;20554;-84
2023/05/11 08:56:55;;;;;;;0.20;0.10;;;;;;;;;;4967939;28;20061;-84
2023/05/11 08:59:22;;;;;;;0.20;0.05;;;;;;;;;;5001979;28;20144;-85
2023/05/11 09:01:52;;;;;;;0.20;0.10;;;;;;;;;;4990807;28;20042;-86
2023/05/11 09:04:18;;;;;;;0.20;0.20;;;;;;;;;;5010798;28;20038;-85
2023/05/11 09:06:45;;;;;;;0.20;0.10;;;;;;;;;;4989608;28;20641;-83
2023/05/11 09:09:11;;;;;;;0.20;0.00;;;;;;;;;;4978870;28;20491;-83
2023/05/11 09:11:37;;;;;;;0.20;0.10;;;;;;;;;;4989507;28;20615;-84
2023/05/11 09:14:04;;;;;;;0.20;0.10;;;;;;;;;;4986762;28;20582;-84
2023/05/11 09:16:30;;;;;;;0.28;0.10;;;;;;;;;;4984739;28;20030;-83
2023/05/11 09:18:59;;;;;;;0.20;0.10;;;;;;;;;;4986084;28;20082;-84
2023/05/11 09:21:26;;;;;;;0.20;0.00;;;;;;;;;;4990064;28;20084;-84
2023/05/11 09:23:54;;;;;;;0.20;0.10;;;;;;;;;;4990144;28;20674;-84
2023/05/11 09:26:23;;;;;;;0.20;0.10;;;;;;;;;;4978330;28;20422;-85
2023/05/11 09:28:53;;;;;;;0.20;0.17;;;;;;;;;;4971917;28;20074;-85
2023/05/11 09:31:36;;;;;;;0.20;0.10;;;;;;;;;;4970551;28;20035;-84
2023/05/11 09:34:28;;;;;;;0.73;0.32;;;;;;;;;;4976375;28;20559;-85
2023/05/11 09:37:00;;;;;;;0.20;0.10;;;;;;;;;;4971849;28;20044;-85
2023/05/11 09:39:33;;;;;;;0.30;0.17;;;;;;;;;;4995464;28;20049;-85
2023/05/11 09:42:02;;;;;;;;;;;;;;;;;;4986673;28;20124;-86
2023/05/11 09:44:31;;;;;;;0.20;0.00;;;;;;;;;;5006981;28;19918;-85
2023/05/11 09:47:09;;;;;;;0.20;0.05;;;;;;;;;;4987136;28;20053;-85
2023/05/11 09:49:35;;;;;;;0.20;0.10;;;;;;;;;;4977652;28;20121;-86
2023/05/11 09:52:01;;;;;;;0.20;0.00;;;;;;;;;;5004736;28;20061;-85
2023/05/11 09:54:28;;;;;;;0.43;0.10;;;;;;;;;;4986161;28;20049;-86
2023/05/11 09:56:57;;;;;;;0.20;0.10;;;;;;;;;;4982027;28;20148;-86
2023/05/11 09:59:48;;;;;;;0.20;0.10;;;;;;;;;;4982350;28;20041;-84
2023/05/11 10:02:22;;;;;;;0.20;0.00;;;;;;;;;;4988832;28;20069;-85
2023/05/11 10:04:52;;;;;;;0.20;0.10;;;;;;;;;;4978357;28;20058;-85
2023/05/11 10:07:27;;;;;;;0.20;0.10;;;;;;;;;;4997343;28;20042;-86
2023/05/11 10:09:55;;;;;;;0.20;0.00;;;;;;;;;;4990448;28;20561;-85
2023/05/11 10:12:27;;;;;;;0.20;0.10;;;;;;;;;;4994660;28;20042;-85
2023/05/11 10:15:06;;;;;;;0.20;0.08;;;;;;;;;;4982094;28;20046;-85
2023/05/11 10:17:32;;;;;;;0.45;0.40;;;;;;;;;;4997369;28;20491;-85
2023/05/11 10:20:02;;;;;;;0.30;0.10;;;;;;;;;;4980010;28;20049;-86
2023/05/11 10:22:29;;;;;;;0.20;0.10;;;;;;;;;;4991910;28;20044;-87
2023/05/11 10:25:01;;;;;;;0.20;0.00;;;;;;;;;;4985858;28;20121;-85
2023/05/11 10:27:40;;;;;;;0.73;0.28;;;;;;;;;;4995438;28;20497;-86
2023/05/11 10:30:07;;;;;;;0.35;0.35;;;;;;;;;;4998132;28;20037;-84
2023/05/11 10:32:38;;;;;;;0.20;0.10;;;;;;;;;;4980140;28;21710;-86
2023/05/11 10:35:05;;;;;;;0.20;0.10;;;;;;;;;;4991007;28;20038;-87
2023/05/11 10:37:32;;;;;;;0.20;0.00;;;;;;;;;;5014674;28;20046;-86
2023/05/11 10:40:01;;;;;;;0.20;0.10;;;;;;;;;;4979213;28;20038;-86
2023/05/11 10:42:27;;;;;;;0.20;0.10;;;;;;;;;;4994899;28;20541;-86
2023/05/11 10:45:05;;;;;;;0.20;0.10;;;;;;;;;;4995653;28;20424;-84
2023/05/11 10:47:31;;;;;;;0.20;0.10;;;;;;;;;;4998483;28;20453;-85
2023/05/11 10:50:28;;;;;;;0.30;0.22;;;;;;;;;;4986238;28;20046;-85
2023/05/11 10:53:06;;;;;;;0.20;0.10;;;;;;;;;;4987177;28;20044;-87
2023/05/11 10:55:35;;;;;;;0.25;0.25;;;;;;;;;;4986684;28;20045;-88
2023/05/11 10:58:09;;;;;;;0.20;0.10;;;;;;;;;;4972102;28;20057;-87
2023/05/11 11:00:42;;;;;;;0.20;0.10;;;;;;;;;;4993067;28;20254;-87
2023/05/11 11:03:09;;;;;;;0.20;0.10;;;;;;;;;;4968286;28;20034;-86
2023/05/11 11:05:38;;;;;;;0.20;0.10;;;;;;;;;;4992984;28;20050;-85
2023/05/11 11:08:16;;;;;;;0.20;0.10;;;;;;;;;;5012346;28;20458;-85
2023/05/11 11:11:06;;;;;;;1.00;0.28;;;;;;;;;;4992288;28;20456;-85
2023/05/11 11:14:11;;;;;;;0.20;0.10;;;;;;;;;;5012886;28;20494;-85
2023/05/11 11:16:58;;;;;;;0.47;0.30;;;;;;;;;;4995294;28;20367;-83
2023/05/11 11:19:33;;;;;;;0.20;0.10;;;;;;;;;;4995326;28;20084;-85
2023/05/11 11:25:56;;;;;;;0.20;0.10;;;;;;;;;;4994299;28;20049;-88
2023/05/11 11:57:52;;;;;;;;;;;;;;;;;;;;;
2023/05/11 12:00:32;;;;;;;0.20;0.20;;;;;;;;;;4973874;28;20046;-84
2023/05/11 12:03:01;;;;;;;0.20;0.10;;;;;;;;;;4976426;28;20507;-83
2023/05/11 12:05:37;;;;;;;0.20;0.13;;;;;;;;;;4950719;28;20174;-85
2023/05/11 12:08:06;;;;;;;0.95;0.40;;;;;;;;;;4970763;28;20117;-83
2023/05/11 12:11:04;;;;;;;0.35;0.25;;;;;;;;;;4954038;28;20515;-84
2023/05/11 12:13:37;;;;;;;0.28;0.15;;;;;;;;;;4956012;28;20415;-83
2023/05/11 12:16:03;;;;;;;;;;;;;;;;;;4951436;28;20520;-82
2023/05/11 12:18:34;;;;;;;0.20;0.20;;;;;;;;;;4972760;28;19926;-87
2023/05/11 12:21:07;;;;;;;0.20;0.10;;;;;;;;;;4957076;28;20456;-86
2023/05/11 12:23:36;;;;;;;0.20;0.10;;;;;;;;;;4957616;28;20043;-83
2023/05/11 12:26:19;;;;;;;0.20;0.10;;;;;;;;;;4971614;28;20038;-83
2023/05/11 12:28:54;;;;;;;0.20;0.10;;;;;;;;;;4958989;28;20038;-84
2023/05/11 12:31:36;;;;;;;0.20;0.00;;;;;;;;;;4971995;28;20035;-86
2023/05/11 12:34:11;;;;;;;0.20;0.10;;;;;;;;;;4969499;28;20046;-83
2023/05/11 12:36:49;;;;;;;0.20;0.00;;;;;;;;;;4972504;28;20527;-84
2023/05/11 12:39:19;;;;;;;0.20;0.20;;;;;;;;;;4969597;28;20477;-83
2023/05/11 12:41:53;;;;;;;0.57;0.20;;;;;;;;;;4952655;28;20046;-84
2023/05/11 12:44:52;;;;;;;0.47;0.30;;;;;;;;;;4972610;28;20049;-86
2023/05/11 12:47:18;;;;;;;0.20;0.00;;;;;;;;;;4962827;28;20039;-83
2023/05/11 12:49:47;;;;;;;0.20;0.10;;;;;;;;;;4971030;28;20046;-85
2023/05/11 12:52:28;;;;;;;0.20;0.10;;;;;;;;;;4968045;28;20039;-84
2023/05/11 12:54:58;;;;;;;0.20;0.10;;;;;;;;;;4973811;28;20109;-85
2023/05/11 12:57:35;;;;;;;0.20;0.10;;;;;;;;;;4964134;28;20047;-84
2023/05/11 13:00:25;;;;;;;0.52;0.15;;;;;;;;;;4967216;28;20128;-83
2023/05/11 13:03:24;;;;;;;0.35;0.22;;;;;;;;;;4964370;28;20050;-83
2023/05/11 13:05:57;;;;;;;1.50;0.30;;;;;;;;;;4961695;28;20122;-84
2023/05/11 13:08:30;;;;;;;0.20;0.10;;;;;;;;;;4970329;28;20067;-83
2023/05/11 13:11:25;;;;;;;0.20;0.10;;;;;;;;;;4963511;28;20035;-85
2023/05/11 13:13:54;;;;;;;0.20;0.10;;;;;;;;;;4970233;28;20054;-85
2023/05/11 13:16:39;;;;;;;0.20;0.10;;;;;;;;;;4970421;28;20043;-82
2023/05/11 13:19:28;;;;;;;0.20;0.10;;;;;;;;;;5105064;23;20653;-83
2023/05/11 13:21:54;;;;;;;0.20;0.10;;;;;;;;;;4942711;28;20049;-84
2023/05/11 13:24:27;;;;;;;0.20;0.10;;;;;;;;;;4935799;28;20109;-84
2023/05/11 13:27:20;;;;;;;0.20;0.10;;;;;;;;;;4962066;28;20075;-84
2023/05/11 13:30:12;;;;;;;0.20;0.05;;;;;;;;;;4925864;28;20771;-86
2023/05/11 13:32:42;;;;;;;0.20;0.10;;;;;;;;;;4932342;28;20511;-83
2023/05/11 13:35:26;;;;;;;0.50;0.10;;;;;;;;;;4950539;28;20873;-84
2023/05/11 13:38:37;;;;;;;0.20;0.10;;;;;;;;;;4955541;28;20133;-85
2023/05/11 13:41:12;;;;;;;0.20;0.10;;;;;;;;;;4927312;28;20055;-85
2023/05/11 13:43:54;;;;;;;;;;;;;;;;;;4956180;28;20055;-88
2023/05/11 13:46:46;;;;;;;0.20;0.10;;;;;;;;;;4961541;28;19973;-83
2023/05/11 13:49:12;;;;;;;0.20;0.10;;;;;;;;;;4963062;23;20054;-83
2023/05/11 13:52:14;;;;;;;0.20;0.10;;;;;;;;;;4955366;28;20081;-85
2023/05/11 13:54:41;;;;;;;0.20;0.10;;;;;;;;;;4937409;28;20059;-84
2023/05/11 14:00:38;;;;;;;0.20;0.10;;;;;;;;;;4942831;28;20093;-85
2023/05/11 14:03:12;;;;;;;0.20;0.10;;;;;;;;;;4929223;28;20063;-89
2023/05/11 14:05:57;;;;;;;0.20;0.00;;;;;;;;;;4941559;28;20040;-85
2023/05/11 14:09:02;;;;;;;0.20;0.10;;;;;;;;;;4949075;23;20069;-85
2023/05/11 14:11:40;;;;;;;0.22;0.10;;;;;;;;;;4923837;28;20632;-85
2023/05/11 14:14:31;;;;;;;0.20;0.10;;;;;;;;;;4910393;28;20591;-86
2023/05/11 14:17:04;;;;;;;0.20;0.05;;;;;;;;;;4937747;28;20074;-86
2023/05/11 14:22:52;;;;;;;;;;;;;;;;;;;;;
2023/05/11 14:26:02;;;;;;;0.20;0.10;;;;;;;;;;4944992;28;20212;-88
2023/05/11 14:28:34;;;;;;;0.20;0.05;;;;;;;;;;5006425;23;20074;-85
2023/05/11 14:34:23;;;;;;;0.20;0.10;;;;;;;;;;4925976;29;20078;-85
2023/05/11 14:40:27;;;;;;;0.20;0.10;;;;;;;;;;4916458;28;20079;-85
2023/05/11 14:43:25;;;;;;;0.20;0.10;;;;;;;;;;4955465;28;20047;-86
2023/05/11 14:47:05;;;;;;;;;;;;;;;;;;;;;
2023/05/11 14:49:09;;;;;;;0.25;0.20;;;;;;;;;;4837862;29;20271;-85
2023/05/11 14:51:58;;;;;;;0.20;0.10;;;;;;;;;;4915154;28;20047;-83
2023/05/11 15:01:22;;;;;;;0.20;0.10;;;;;;;;;;4860770;29;20090;-84
2023/05/11 15:10:04;;;;;;;0.20;0.15;;;;;;;;;;4956007;28;20590;-85
2023/05/11 15:15:56;;;;;;;0.20;0.00;;;;;;;;;;4943774;28;20085;-84
2023/05/11 15:24:43;;;;;;;0.20;0.10;;;;;;;;;;4954967;28;20105;-87
2023/05/11 15:30:21;;;;;;;0.20;0.10;;;;;;;;;;5056477;23;20105;-88
2023/05/11 15:33:11;;;;;;;0.20;0.10;;;;;;;;;;4983420;28;20586;-85
2023/05/11 15:36:12;;;;;;;0.20;0.10;;;;;;;;;;4974810;28;20056;-84
2023/05/11 15:53:10;;;;;;;0.20;0.10;;;;;;;;;;4848213;29;20191;-85
2023/05/11 15:55:44;;;;;;;0.20;0.10;;;;;;;;;;4827658;29;20078;-87
2023/05/11 16:05:31;;;;;;;0.20;0.10;;;;;;;;;;4765939;30;20054;-86
2023/05/11 16:11:01;;;;;;;0.20;0.10;;;;;;;;;;5185940;23;20053;-87
2023/05/11 16:14:44;;;;;;;0.20;0.10;;;;;;;;;;4968795;28;20039;-87
2023/05/11 16:43:44;;;;;;;0.20;0.10;;;;;;;;;;4980591;28;20090;-86
2023/05/11 16:47:16;;;;;;;0.20;0.10;;;;;;;;;;4939276;28;20543;-87
2023/05/11 17:10:46;;;;;;;0.20;0.00;;;;;;;;;;4965359;28;20524;-86
2023/05/11 17:13:27;;;;;;;0.20;0.05;;;;;;;;;;4945079;28;20090;-85
2023/05/11 17:16:31;;;;;;;0.20;0.10;;;;;;;;;;4935529;28;20039;-87
2023/05/11 17:32:24;;;;;;;0.20;0.00;;;;;;;;;;4945373;28;20408;-86
2023/05/11 17:35:10;;;;;;;0.20;0.20;;;;;;;;;;4929445;29;20095;-86
2023/05/11 17:43:00;;;;;;;0.20;0.10;;;;;;;;;;5035146;23;20462;-86
2023/05/11 17:45:29;;;;;;;0.20;0.10;;;;;;;;;;4961901;28;20086;-84
2023/05/11 17:48:30;;;;;;;0.20;0.20;;;;;;;;;;4959101;28;20061;-86
2023/05/11 17:51:13;;;;;;;0.20;0.10;;;;;;;;;;4937719;28;20764;-86
2023/05/11 17:54:01;;;;;;;0.20;0.10;;;;;;;;;;4938077;28;20036;-87
2023/05/11 17:57:06;;;;;;;0.20;0.20;;;;;;;;;;4966670;28;20719;-85
2023/05/11 18:06:41;;;;;;;0.20;0.10;;;;;;;;;;4897782;29;20028;-90
2023/05/11 18:14:54;;;;;;;0.30;0.25;;;;;;;;;;4957743;28;20455;-87
2023/05/11 18:17:41;;;;;;;0.35;0.25;;;;;;;;;;4959996;28;20054;-87
2023/05/11 18:24:03;;;;;;;0.20;0.03;;;;;;;;;;4902145;29;20591;-88
2023/05/11 18:30:10;;;;;;;0.35;0.30;;;;;;;;;;4904763;28;20047;-83
2023/05/11 18:35:39;;;;;;;0.30;0.30;;;;;;;;;;4926364;29;20051;-85
2023/05/11 18:38:08;;;;;;;0.20;0.10;;;;;;;;;;4929971;29;20065;-88
2023/05/11 18:40:46;;;;;;;0.20;0.10;;;;;;;;;;4943403;28;20134;-89
2023/05/11 18:43:42;;;;;;;0.20;0.10;;;;;;;;;;4938030;28;20852;-88
2023/05/11 18:46:38;;;;;;;0.50;0.35;;;;;;;;;;4936861;28;20035;-85
2023/05/11 18:52:11;;;;;;;0.30;0.10;;;;;;;;;;4933490;29;20059;-89
2023/05/11 18:54:59;;;;;;;0.40;0.35;;;;;;;;;;4939857;28;20046;-89
2023/05/11 18:57:36;;;;;;;0.70;0.50;;;;;;;;;;4924266;29;20054;-88
2023/05/11 19:00:22;;;;;;;0.20;0.20;;;;;;;;;;4942243;28;20043;-86
2023/05/11 19:03:01;;;;;;;0.20;0.10;;;;;;;;;;4939148;28;20619;-85
2023/05/11 19:06:02;;;;;;;0.20;0.10;;;;;;;;;;4942869;28;20050;-87
2023/05/11 19:09:09;;;;;;;0.20;0.10;;;;;;;;;;4979114;23;20169;-85
2023/05/11 19:12:28;;;;;;;0.20;0.10;;;;;;;;;;4973858;28;20748;-86
2023/05/11 19:15:04;;;;;;;0.82;0.32;;;;;;;;;;4975400;28;20034;-85
2023/05/11 19:17:51;;;;;;;0.20;0.10;;;;;;;;;;4962371;28;20057;-87
2023/05/11 19:20:52;;;;;;;0.20;0.10;;;;;;;;;;4976275;28;20491;-88
2023/05/11 19:23:51;;;;;;;0.20;0.20;;;;;;;;;;4981277;28;20515;-88
2023/05/11 19:27:16;;;;;;;0.25;0.22;;;;;;;;;;4986684;28;20643;-88
2023/05/11 19:32:54;;;;;;;0.50;0.30;;;;;;;;;;4964101;28;20533;-85
2023/05/11 19:38:48;;;;;;;0.20;0.13;;;;;;;;;;4977047;28;20057;-86
2023/05/11 19:41:15;;;;;;;0.63;0.30;;;;;;;;;;4975477;28;20101;-86
2023/05/11 19:43:49;;;;;;;0.20;0.10;;;;;;;;;;4951673;28;20470;-85
2023/05/11 19:49:16;;;;;;;0.20;0.10;;;;;;;;;;4971809;28;20383;-83
2023/05/11 19:51:58;;;;;;;0.68;0.20;;;;;;;;;;4969199;28;20047;-83
2023/05/11 19:54:34;;;;;;;0.20;0.10;;;;;;;;;;4959446;28;20042;-83
2023/05/11 19:57:30;;;;;;;;;;;;;;;;;;;;;
2023/05/11 20:03:09;;;;;;;0.20;0.10;;;;;;;;;;4969845;28;20046;-84
2023/05/11 20:05:35;;;;;;;0.20;0.05;;;;;;;;;;4947448;28;20066;-83
2023/05/11 20:08:10;;;;;;;0.20;0.10;;;;;;;;;;4970629;28;20558;-84
2023/05/11 20:11:03;;;;;;;0.20;0.03;;;;;;;;;;4969472;28;20165;-84
2023/05/11 20:13:43;;;;;;;0.20;0.10;;;;;;;;;;4963585;28;20035;-83
2023/05/11 20:16:46;;;;;;;0.63;0.52;;;;;;;;;;4961821;28;20134;-83
2023/05/11 20:19:29;;;;;;;0.25;0.25;;;;;;;;;;4975858;28;20541;-84
2023/05/11 20:22:12;;;;;;;;;;;;;;;;;;;;;
2023/05/11 20:25:08;;;;;;;0.20;0.20;;;;;;;;;;4931303;28;19932;-83
2023/05/11 20:27:50;;;;;;;0.20;0.20;;;;;;;;;;4952700;28;20730;-84
2023/05/11 20:30:25;;;;;;;0.22;0.22;;;;;;;;;;4969045;28;20058;-84
2023/05/11 20:35:59;;;;;;;0.20;0.10;;;;;;;;;;4963820;28;20044;-85
2023/05/11 20:38:48;;;;;;;0.40;0.17;;;;;;;;;;4954817;28;20031;-85
2023/05/11 20:44:48;;;;;;;0.77;0.43;;;;;;;;;;4967833;28;20076;-84
2023/05/11 20:47:24;;;;;;;0.20;0.10;;;;;;;;;;4968746;28;20074;-84
2023/05/11 20:50:31;;;;;;;0.30;0.25;;;;;;;;;;4958603;28;20054;-84
2023/05/11 20:53:31;;;;;;;0.20;0.10;;;;;;;;;;4951152;28;20053;-85
2023/05/11 20:59:14;;;;;;;0.20;0.10;;;;;;;;;;4970176;28;20508;-83
2023/05/11 21:02:12;;;;;;;0.20;0.10;;;;;;;;;;4943151;28;20050;-83
2023/05/11 21:04:44;;;;;;;0.25;0.15;;;;;;;;;;4967037;28;20085;-84
2023/05/11 21:10:44;;;;;;;0.20;0.20;;;;;;;;;;4965554;28;20058;-84
2023/05/11 21:13:41;;;;;;;0.20;0.10;;;;;;;;;;4971944;28;20133;-84
2023/05/11 21:16:20;;;;;;;0.20;0.20;;;;;;;;;;4967593;28;22652;-85
2023/05/11 21:18:52;;;;;;;0.20;0.10;;;;;;;;;;4962083;23;20161;-83
2023/05/11 21:21:50;;;;;;;0.20;0.10;;;;;;;;;;4953098;28;20062;-85
2023/05/11 21:24:39;;;;;;;0.20;0.10;;;;;;;;;;4953892;28;20061;-83
2023/05/11 21:27:17;;;;;;;0.63;0.13;;;;;;;;;;4954169;28;20055;-86
2023/05/11 21:30:02;;;;;;;0.20;0.10;;;;;;;;;;4934766;28;20063;-83
2023/05/11 21:32:49;;;;;;;0.20;0.10;;;;;;;;;;4935451;28;20032;-84
2023/05/11 21:35:16;;;;;;;0.20;0.20;;;;;;;;;;4952435;28;20047;-83